createdAt,value
2024-02-17T00:04:56.431Z,44.47
2024-02-17T00:09:58.662Z,43.73
2024-02-17T00:15:01.212Z,43.72
2024-02-17T00:20:04.973Z,44.10
2024-02-17T00:25:07.569Z,43.60
2024-02-17T00:30:10.423Z,45.25
2024-02-17T00:35:12.947Z,43.87
2024-02-17T00:40:15.408Z,45.25
2024-02-17T00:45:17.648Z,46.20
2024-02-17T00:50:20.030Z,43.33
2024-02-17T00:55:22.277Z,43.28
2024-02-17T01:00:24.573Z,44.80
2024-02-17T01:05:26.813Z,43.53
2024-02-17T01:10:30.473Z,40.92
2024-02-17T01:15:32.645Z,49.97
2024-02-17T01:20:35.066Z,40.65
2024-02-17T01:25:37.215Z,44.13
2024-02-17T01:30:39.559Z,41.90
2024-02-17T01:35:41.883Z,46.25
2024-02-17T01:40:44.242Z,42.23
2024-02-17T01:45:47.613Z,41.17
2024-02-17T01:50:49.894Z,45.00
2024-02-17T01:55:53.308Z,44.90
2024-02-17T02:00:55.834Z,44.85
2024-02-17T02:05:59.559Z,45.20
2024-02-17T02:11:02.132Z,44.28
2024-02-17T02:16:04.648Z,41.10
2024-02-17T02:21:07.024Z,46.83
2024-02-17T02:26:09.374Z,44.17
2024-02-17T02:31:11.473Z,40.97
2024-02-17T02:36:13.688Z,43.55
2024-02-17T02:41:16.050Z,43.80
2024-02-17T02:46:18.355Z,41.35
2024-02-17T02:51:20.668Z,44.10
2024-02-17T02:56:22.899Z,41.17
2024-02-17T03:01:25.208Z,38.22
2024-02-17T03:06:28.609Z,40.83
2024-02-17T03:11:31.073Z,37.00
2024-02-17T03:16:33.253Z,44.45
2024-02-17T03:21:37.645Z,40.37
2024-02-17T03:26:40.292Z,42.70
2024-02-17T03:31:42.549Z,39.97
2024-02-17T03:36:44.805Z,41.50
2024-02-17T03:41:47.568Z,41.35
2024-02-17T03:46:49.784Z,44.50
2024-02-17T03:51:52.051Z,44.88
2024-02-17T03:56:54.210Z,44.73
2024-02-17T04:01:57.078Z,40.42
2024-02-17T04:06:59.507Z,43.75
2024-02-17T04:12:01.881Z,43.83
2024-02-17T04:17:04.114Z,42.13
2024-02-17T04:22:06.375Z,38.33
2024-02-17T04:27:09.765Z,37.85
2024-02-17T04:32:11.993Z,40.72
2024-02-17T04:37:14.203Z,39.43
2024-02-17T04:42:16.735Z,39.78
2024-02-17T04:47:18.920Z,39.60
2024-02-17T04:52:21.096Z,42.67
2024-02-17T04:57:23.327Z,39.40
2024-02-17T05:02:25.527Z,42.10
2024-02-17T05:07:27.791Z,41.08
2024-02-17T05:12:30.209Z,40.00
2024-02-17T05:17:32.848Z,40.67
2024-02-17T05:22:35.020Z,45.83
2024-02-17T05:27:37.555Z,45.47
2024-02-17T05:32:40.326Z,41.72
2024-02-17T05:37:42.635Z,40.23
2024-02-17T05:42:45.184Z,47.90
2024-02-17T05:47:47.572Z,39.13
2024-02-17T05:52:50.246Z,38.97
2024-02-17T05:57:52.500Z,41.72
2024-02-17T06:02:55.167Z,43.80
2024-02-17T06:07:57.345Z,43.53
2024-02-17T06:12:59.705Z,38.35
2024-02-17T06:18:20.664Z,39.83
2024-02-17T06:23:22.873Z,38.40
2024-02-17T06:28:25.016Z,37.90
2024-02-17T06:33:32.738Z,37.88
2024-02-17T06:38:35.359Z,41.15
2024-02-17T06:43:38.070Z,42.70
2024-02-17T06:48:40.891Z,41.03
2024-02-17T06:53:43.176Z,38.10
2024-02-17T06:58:45.406Z,40.47
2024-02-17T07:03:48.685Z,46.42
2024-02-17T07:08:50.926Z,42.87
2024-02-17T07:13:53.128Z,39.00
2024-02-17T07:18:58.956Z,42.73
2024-02-17T07:24:01.353Z,40.15
2024-02-17T07:29:04.034Z,40.97
2024-02-17T07:34:07.193Z,44.43
2024-02-17T07:39:09.641Z,41.05
2024-02-17T07:44:11.853Z,47.40
2024-02-17T07:49:14.212Z,48.63
2024-02-17T07:54:16.509Z,42.75
2024-02-17T07:59:18.811Z,39.27
2024-02-17T08:04:21.019Z,44.70
2024-02-17T08:09:23.307Z,40.20
2024-02-17T08:14:28.113Z,40.03
2024-02-17T08:19:32.073Z,40.08
2024-02-17T08:24:34.299Z,43.60
2024-02-17T08:29:36.602Z,42.40
2024-02-17T08:34:39.294Z,41.57
2024-02-17T08:39:41.670Z,42.22
2024-02-17T08:44:44.006Z,40.58
2024-02-17T08:49:47.453Z,37.33
2024-02-17T08:54:49.737Z,44.55
2024-02-17T08:59:52.033Z,38.80
2024-02-17T09:04:54.447Z,39.28
2024-02-17T09:09:56.711Z,36.13
2024-02-17T09:14:59.173Z,37.70
2024-02-17T09:20:01.544Z,36.70
2024-02-17T09:25:03.984Z,39.67
2024-02-17T09:30:07.796Z,39.30
2024-02-17T09:35:10.277Z,34.13
2024-02-17T09:40:15.794Z,36.43
2024-02-17T09:45:17.978Z,35.25
2024-02-17T09:50:20.507Z,36.83
2024-02-17T09:55:23.863Z,30.67
2024-02-17T10:00:26.090Z,32.35
2024-02-17T10:05:29.508Z,31.73
2024-02-17T10:10:32.056Z,32.20
2024-02-17T10:15:34.541Z,32.10
2024-02-17T10:20:37.489Z,31.17
2024-02-17T10:25:39.976Z,31.77
2024-02-17T10:30:42.301Z,30.80
2024-02-17T11:34:11.175Z,26.00
2024-02-17T11:39:37.738Z,22.93
2024-02-17T11:44:52.432Z,24.15
2024-02-17T11:50:05.599Z,21.65
2024-02-17T12:12:00.857Z,23.00
2024-02-17T12:17:14.360Z,24.37
2024-02-17T12:22:19.725Z,24.00
2024-02-17T12:27:25.418Z,23.90
2024-02-17T12:37:55.960Z,25.60
2024-02-17T12:43:00.652Z,26.08
2024-02-17T12:48:06.618Z,23.43
2024-02-17T12:53:26.688Z,24.02
2024-02-17T12:58:34.039Z,24.23
2024-02-17T13:08:57.668Z,25.57
2024-02-17T13:14:05.417Z,23.17
2024-02-17T13:19:08.330Z,23.53
2024-02-17T13:24:13.135Z,25.65
2024-02-17T13:29:18.010Z,24.23
2024-02-17T13:34:20.953Z,21.95
2024-02-17T13:39:31.187Z,23.98
2024-02-17T13:44:39.228Z,24.40
2024-02-17T13:49:41.699Z,22.92
2024-02-17T13:54:44.778Z,22.67
2024-02-17T13:59:48.086Z,23.23
2024-02-17T14:04:50.486Z,24.25
2024-02-17T14:09:59.770Z,24.07
2024-02-17T14:21:09.889Z,24.17
2024-02-17T14:26:12.590Z,26.40
2024-02-17T14:49:21.513Z,24.37
2024-02-17T14:54:24.846Z,25.90
2024-02-17T14:59:27.641Z,26.00
2024-02-17T15:04:30.001Z,24.67
2024-02-17T15:09:32.644Z,28.62
2024-02-17T15:14:35.053Z,26.77
2024-02-17T15:19:38.073Z,24.02
2024-02-17T15:24:40.395Z,24.23
2024-02-17T15:29:42.677Z,26.20
2024-02-17T15:34:45.010Z,28.35
2024-02-17T15:39:47.356Z,29.33
2024-02-17T15:44:49.638Z,27.17
2024-02-17T15:49:51.905Z,24.00
2024-02-17T15:54:54.667Z,24.67
2024-02-17T15:59:58.234Z,27.37
2024-02-17T16:05:00.658Z,26.40
2024-02-17T16:10:03.576Z,24.42
2024-02-17T16:15:09.974Z,26.15
2024-02-17T16:20:12.472Z,25.27
2024-02-17T16:31:17.426Z,25.20
2024-02-17T16:36:23.282Z,24.15
2024-02-17T16:41:25.903Z,23.30
2024-02-17T16:46:28.530Z,24.07
2024-02-17T16:51:34.703Z,31.20
2024-02-17T16:56:37.683Z,26.57
2024-02-17T17:01:40.173Z,24.70
2024-02-17T17:06:42.848Z,27.95
2024-02-17T17:11:45.411Z,27.77
2024-02-17T17:16:47.630Z,28.27
2024-02-17T17:21:51.256Z,24.10
2024-02-17T17:26:55.146Z,27.15
2024-02-17T17:31:57.771Z,30.20
2024-02-17T17:37:00.349Z,31.00
2024-02-17T17:42:02.839Z,30.92
2024-02-17T17:47:05.778Z,31.73
2024-02-17T17:52:08.362Z,31.55
2024-02-17T17:57:10.614Z,30.80
2024-02-17T18:02:12.810Z,26.93
2024-02-17T18:07:15.057Z,32.78
2024-02-17T18:12:17.561Z,27.23
2024-02-17T18:17:19.981Z,28.25
2024-02-17T18:22:22.834Z,29.58
2024-02-17T18:27:25.149Z,31.10
2024-02-17T18:32:27.518Z,30.35
2024-02-17T18:37:30.848Z,30.93
2024-02-17T18:42:33.467Z,34.38
2024-02-17T18:47:35.720Z,33.53
2024-02-17T18:52:37.969Z,30.30
2024-02-17T18:57:42.107Z,28.10
2024-02-17T19:02:44.564Z,27.67
2024-02-17T19:07:47.622Z,30.12
2024-02-17T19:12:50.054Z,32.50
2024-02-17T19:17:52.357Z,33.00
2024-02-17T19:22:55.548Z,31.65
2024-02-17T19:27:57.935Z,33.33
2024-02-17T19:33:00.328Z,29.52
2024-02-17T19:38:02.848Z,26.35
2024-02-17T19:43:08.344Z,24.93
2024-02-17T19:48:10.954Z,31.65
2024-02-17T19:53:13.357Z,35.90
2024-02-17T19:58:15.664Z,30.98
2024-02-17T20:03:17.975Z,26.75
2024-02-17T20:08:20.269Z,31.23
2024-02-17T20:13:22.719Z,30.45
2024-02-17T20:18:25.263Z,30.73
2024-02-17T20:23:27.994Z,25.90
2024-02-17T20:28:30.496Z,32.90
2024-02-17T20:33:33.090Z,28.33
2024-02-17T20:38:35.396Z,28.92
2024-02-17T20:43:37.866Z,31.80
2024-02-17T20:48:40.215Z,27.42
2024-02-17T20:53:43.411Z,33.35
2024-02-17T20:58:46.046Z,23.00
2024-02-17T21:03:48.207Z,34.08
2024-02-17T21:08:50.361Z,33.20
2024-02-17T21:13:52.539Z,33.03
2024-02-17T21:18:55.688Z,33.55
2024-02-17T21:23:58.118Z,33.60
2024-02-17T21:29:01.139Z,32.38
2024-02-17T21:34:04.072Z,38.30
2024-02-17T21:39:07.960Z,34.33
2024-02-17T21:44:11.076Z,35.45
2024-02-17T21:49:13.476Z,33.97
2024-02-17T21:54:16.159Z,34.58
2024-02-17T21:59:18.360Z,34.10
2024-02-17T22:04:20.840Z,30.35
2024-02-17T22:09:23.094Z,31.35
2024-02-17T22:14:25.275Z,26.73
2024-02-17T22:19:27.534Z,27.80
2024-02-17T22:24:29.902Z,30.03
2024-02-17T22:29:33.519Z,26.60
2024-02-17T22:34:35.989Z,25.67
2024-02-17T22:39:38.754Z,23.97
2024-02-17T22:44:40.967Z,23.67
2024-02-17T22:49:44.743Z,26.97
2024-02-17T22:54:47.808Z,25.65
2024-02-17T22:59:50.007Z,25.05
2024-02-17T23:04:52.789Z,29.77
2024-02-17T23:10:00.441Z,27.52
2024-02-17T23:21:21.894Z,25.52
2024-02-17T23:26:24.234Z,26.95
2024-02-17T23:31:26.690Z,28.20
2024-02-17T23:36:32.578Z,26.08
2024-02-17T23:41:36.573Z,26.53
2024-02-17T23:46:38.941Z,30.00
2024-02-17T23:51:49.462Z,33.03
2024-02-17T23:56:51.862Z,32.13
